createdAt,value
2018-06-17T00:00:41.783Z,97884.65
2018-06-17T00:01:44.949Z,97887.17
2018-06-17T00:02:47.787Z,97886.33
2018-06-17T00:03:51.113Z,97885.02
2018-06-17T00:04:54.497Z,97892.34
2018-06-17T00:05:59.143Z,97892.05
2018-06-17T00:07:02.064Z,97896.48
2018-06-17T00:08:06.002Z,97898.20
2018-06-17T00:09:09.163Z,97891.14
2018-06-17T00:10:12.408Z,97896.39
2018-06-17T00:11:16.867Z,97895.86
2018-06-17T00:12:20.646Z,97897.80
2018-06-17T00:13:24.079Z,97892.98
2018-06-17T00:14:28.223Z,97888.80
2018-06-17T00:15:31.712Z,97894.51
2018-06-17T00:16:34.929Z,97888.27
2018-06-17T00:17:38.013Z,97896.94
2018-06-17T00:18:42.076Z,97897.94
2018-06-17T00:19:45.231Z,97894.44
2018-06-17T00:20:48.024Z,97890.00
2018-06-17T00:21:50.919Z,97891.94
2018-06-17T00:22:54.427Z,97891.06
2018-06-17T00:23:57.504Z,97893.98
2018-06-17T00:25:00.623Z,97896.33
2018-06-17T00:26:03.417Z,97901.81
2018-06-17T00:27:06.182Z,97896.17
2018-06-17T00:28:09.328Z,97902.14
2018-06-17T00:29:14.207Z,97899.70
2018-06-17T00:30:18.439Z,97901.52
2018-06-17T00:31:21.270Z,97904.10
2018-06-17T00:32:25.664Z,97914.44
2018-06-17T00:33:28.474Z,97911.89
2018-06-17T00:34:31.751Z,97908.75
2018-06-17T00:35:36.336Z,97911.22
2018-06-17T00:36:39.589Z,97916.81
2018-06-17T00:37:42.434Z,97909.02
2018-06-17T00:38:45.185Z,97919.33
2018-06-17T00:39:48.483Z,97916.17
2018-06-17T00:40:52.622Z,97918.84
2018-06-17T00:41:56.059Z,97917.23
2018-06-17T00:42:58.872Z,97923.88
2018-06-17T00:44:01.715Z,97922.06
2018-06-17T00:45:04.873Z,97922.88
2018-06-17T00:46:07.885Z,97918.54
2018-06-17T00:47:10.738Z,97913.06
2018-06-17T00:48:14.654Z,97921.00
2018-06-17T00:49:17.445Z,97922.60
2018-06-17T00:50:20.832Z,97925.13
2018-06-17T00:51:23.598Z,97918.33
2018-06-17T00:52:26.367Z,97921.45
2018-06-17T00:53:29.160Z,97918.33
2018-06-17T00:54:33.800Z,97919.64
2018-06-17T00:55:37.331Z,97914.81
2018-06-17T00:56:40.296Z,97921.67
2018-06-17T00:57:43.116Z,97925.12
2018-06-17T00:58:45.903Z,97925.27
2018-06-17T00:59:50.407Z,97928.76
2018-06-17T01:00:54.499Z,97922.75
2018-06-17T01:01:57.456Z,97919.08
2018-06-17T01:03:00.248Z,97915.17
2018-06-17T01:04:03.863Z,97913.66
2018-06-17T01:05:08.425Z,97919.92
2018-06-17T01:06:12.377Z,97918.18
2018-06-17T01:07:16.395Z,97920.56
2018-06-17T01:08:19.147Z,97921.51
2018-06-17T01:09:21.903Z,97917.41
2018-06-17T01:10:24.712Z,97915.74
2018-06-17T01:11:28.824Z,97911.30
2018-06-17T01:12:33.589Z,97907.96
2018-06-17T01:13:37.387Z,97911.50
2018-06-17T01:14:40.458Z,97912.00
2018-06-17T01:15:43.222Z,97905.80
2018-06-17T01:16:46.025Z,97906.20
2018-06-17T01:17:50.342Z,97907.32
2018-06-17T01:18:53.129Z,97916.17
2018-06-17T01:19:56.238Z,97907.34
2018-06-17T01:20:58.991Z,97915.11
2018-06-17T01:22:03.602Z,97915.41
2018-06-17T01:23:06.938Z,97918.53
2018-06-17T01:24:10.908Z,97919.87
2018-06-17T01:25:14.200Z,97928.70
2018-06-17T01:26:17.660Z,97920.09
2018-06-17T01:27:20.445Z,97922.20
2018-06-17T01:28:25.049Z,97926.62
2018-06-17T01:29:27.887Z,97925.98
2018-06-17T01:30:30.714Z,97925.47
2018-06-17T01:31:33.527Z,97928.84
2018-06-17T01:32:37.112Z,97930.07
2018-06-17T01:33:40.362Z,97932.75
2018-06-17T01:34:44.625Z,97924.17
2018-06-17T01:35:47.430Z,97929.36
2018-06-17T01:37:01.297Z,97926.50
2018-06-17T01:38:06.030Z,97926.84
2018-06-17T01:39:09.773Z,97924.53
2018-06-17T01:40:13.414Z,97924.75
2018-06-17T01:41:17.653Z,97924.97
2018-06-17T01:42:21.054Z,97927.20
2018-06-17T01:43:23.946Z,97918.82
2018-06-17T01:44:27.374Z,97914.19
2018-06-17T01:45:30.374Z,97921.50
2018-06-17T01:46:34.304Z,97918.75
2018-06-17T01:47:37.133Z,97918.18
2018-06-17T01:48:39.972Z,97921.55
2018-06-17T01:49:43.110Z,97925.33
2018-06-17T01:50:47.613Z,97923.26
2018-06-17T01:51:50.425Z,97929.52
2018-06-17T01:52:53.491Z,97933.23
2018-06-17T01:53:56.296Z,97926.95
2018-06-17T01:54:59.420Z,97930.56
2018-06-17T01:56:03.719Z,97930.98
2018-06-17T01:57:10.295Z,97928.45
2018-06-17T01:58:14.095Z,97929.05
2018-06-17T01:59:17.970Z,97929.83
2018-06-17T02:00:21.598Z,97932.08
2018-06-17T02:01:24.434Z,97928.21
2018-06-17T02:02:27.379Z,97925.33
2018-06-17T02:03:36.519Z,97929.95
2018-06-17T02:04:45.410Z,97931.97
2018-06-17T02:05:53.915Z,97929.45
2018-06-17T02:07:01.679Z,97932.67
2018-06-17T02:08:09.406Z,97935.63
2018-06-17T02:09:17.733Z,97932.75
2018-06-17T02:10:25.590Z,97934.26
2018-06-17T02:11:33.495Z,97929.42
2018-06-17T02:12:37.185Z,97934.13
2018-06-17T02:13:39.952Z,97929.87
2018-06-17T02:14:50.056Z,97928.44
2018-06-17T02:15:56.597Z,97930.95
2018-06-17T02:17:00.355Z,97925.83
2018-06-17T02:18:03.213Z,97933.20
2018-06-17T02:19:06.556Z,97929.78
2018-06-17T02:20:13.582Z,97931.20
2018-06-17T02:21:16.868Z,97933.86
2018-06-17T02:22:19.735Z,97929.75
2018-06-17T02:23:22.876Z,97942.55
2018-06-17T02:24:29.250Z,97938.27
2018-06-17T02:25:32.385Z,97943.47
2018-06-17T02:26:36.283Z,97948.17
2018-06-17T02:27:39.603Z,97947.02
2018-06-17T02:28:42.684Z,97940.21
2018-06-17T02:29:45.768Z,97942.81
2018-06-17T02:30:49.075Z,97935.78
2018-06-17T02:31:51.937Z,97933.88
2018-06-17T02:32:54.767Z,97937.70
2018-06-17T02:33:58.266Z,97940.17
2018-06-17T02:35:03.442Z,97937.30
2018-06-17T02:36:07.606Z,97938.72
2018-06-17T02:37:11.440Z,97936.16
2018-06-17T02:38:14.276Z,97940.40
2018-06-17T02:39:17.077Z,97942.95
2018-06-17T02:40:20.302Z,97947.34
2018-06-17T02:41:23.432Z,97948.61
2018-06-17T02:42:26.519Z,97943.98
2018-06-17T02:43:29.370Z,97944.61
2018-06-17T02:44:32.182Z,97943.11
2018-06-17T02:45:39.900Z,97949.39
2018-06-17T02:46:48.015Z,97949.02
2018-06-17T02:49:57.630Z,97953.00
2018-06-17T02:53:06.762Z,97958.34
2018-06-17T02:54:14.463Z,97954.73
2018-06-17T02:55:17.257Z,97956.37
2018-06-17T02:56:20.278Z,97951.05
2018-06-17T02:57:23.913Z,97954.75
2018-06-17T02:58:28.130Z,97952.95
2018-06-17T02:59:30.939Z,97952.30
2018-06-17T03:00:33.746Z,97951.62
2018-06-17T03:01:37.177Z,97956.77
2018-06-17T03:02:40.548Z,97957.64
2018-06-17T03:03:43.427Z,97958.00
2018-06-17T03:04:46.659Z,97964.80
2018-06-17T03:05:49.508Z,97967.77
2018-06-17T03:06:52.461Z,97966.81
2018-06-17T03:07:55.323Z,97971.55
2018-06-17T03:08:58.098Z,97977.39
2018-06-17T03:10:01.114Z,97969.43
2018-06-17T03:11:06.032Z,97973.67
2018-06-17T03:12:09.816Z,97977.61
2018-06-17T03:13:13.189Z,97973.56
2018-06-17T03:14:16.620Z,97980.73
2018-06-17T03:15:19.411Z,97977.12
2018-06-17T03:16:22.930Z,97981.46
2018-06-17T03:17:27.535Z,97978.27
2018-06-17T03:18:30.978Z,97977.61
2018-06-17T03:19:33.841Z,97982.38
2018-06-17T03:20:36.721Z,97977.67
2018-06-17T03:21:39.912Z,97976.70
2018-06-17T03:22:42.937Z,97977.58
2018-06-17T03:23:46.349Z,97978.67
2018-06-17T03:24:54.354Z,97984.55
2018-06-17T03:26:02.085Z,97986.25
2018-06-17T03:27:09.794Z,97986.61
2018-06-17T03:28:17.462Z,97979.36
2018-06-17T03:29:25.584Z,97984.27
2018-06-17T03:32:39.236Z,97981.63
2018-06-17T03:33:50.505Z,97987.63
2018-06-17T03:34:58.516Z,97990.78
2018-06-17T03:36:06.313Z,97980.85
2018-06-17T03:37:09.104Z,97982.59
2018-06-17T03:38:12.858Z,97980.67
2018-06-17T03:39:16.879Z,97984.50
2018-06-17T03:40:19.663Z,97985.46
2018-06-17T03:41:22.907Z,97984.98
2018-06-17T03:42:26.643Z,97987.67
2018-06-17T03:43:30.239Z,97984.15
2018-06-17T03:44:34.151Z,97982.91
2018-06-17T03:45:37.107Z,97985.44
2018-06-17T03:46:40.376Z,97982.94
2018-06-17T03:47:43.197Z,97982.72
2018-06-17T03:48:46.851Z,97980.80
2018-06-17T03:49:50.391Z,97986.27
2018-06-17T03:50:53.852Z,97987.31
2018-06-17T03:51:56.672Z,97987.69
2018-06-17T03:53:00.104Z,97982.89
2018-06-17T03:54:03.714Z,97989.13
2018-06-17T03:55:07.075Z,97983.66
2018-06-17T03:56:10.506Z,97988.55
2018-06-17T03:57:13.422Z,97983.10
2018-06-17T03:58:16.321Z,97987.70
2018-06-17T03:59:19.823Z,97986.78
2018-06-17T04:00:22.929Z,97986.33
2018-06-17T04:01:26.054Z,97985.39
2018-06-17T04:02:29.019Z,97984.02
2018-06-17T04:03:31.846Z,97989.37
2018-06-17T04:04:39.593Z,97995.57
2018-06-17T04:05:42.744Z,97997.73
2018-06-17T04:06:46.561Z,97997.86
2018-06-17T04:07:50.589Z,97997.25
2018-06-17T04:08:55.537Z,97994.05
2018-06-17T04:09:58.511Z,97994.39
2018-06-17T04:11:01.334Z,97992.39
2018-06-17T04:12:04.541Z,97987.29
2018-06-17T04:13:07.988Z,97992.77
2018-06-17T04:14:12.302Z,97990.25
2018-06-17T04:15:16.978Z,97992.66
2018-06-17T04:16:19.783Z,97989.05
2018-06-17T04:17:22.598Z,97995.19
2018-06-17T04:18:25.801Z,97999.88
2018-06-17T04:19:29.249Z,98000.55
2018-06-17T04:20:32.118Z,97994.16
2018-06-17T04:21:37.598Z,97995.63
2018-06-17T04:22:43.456Z,97996.20
2018-06-17T04:23:46.251Z,97998.16
2018-06-17T04:24:49.360Z,97994.35
2018-06-17T04:25:52.571Z,98004.78
2018-06-17T04:26:56.061Z,98010.13
2018-06-17T04:27:58.893Z,98006.61
2018-06-17T04:29:01.705Z,98001.58
2018-06-17T04:30:05.796Z,98005.36
2018-06-17T04:31:09.326Z,98006.36
2018-06-17T04:32:13.387Z,98007.73
2018-06-17T04:33:18.333Z,98000.52
2018-06-17T04:34:27.462Z,98006.27
2018-06-17T04:35:34.513Z,98001.73
2018-06-17T04:36:37.588Z,97996.81
2018-06-17T04:37:41.493Z,98002.63
2018-06-17T04:38:44.307Z,98001.94
2018-06-17T05:02:49.220Z,98020.81
2018-06-17T05:03:53.225Z,98020.36
2018-06-17T05:04:56.083Z,98018.23
2018-06-17T05:05:58.928Z,98023.89
2018-06-17T05:07:01.831Z,98026.30
2018-06-17T05:08:06.013Z,98023.52
2018-06-17T05:09:09.804Z,98024.81
2018-06-17T05:10:13.020Z,98025.77
2018-06-17T05:11:15.832Z,98022.80
2018-06-17T05:12:18.690Z,98031.15
2018-06-17T05:13:21.973Z,98028.80
2018-06-17T05:14:24.962Z,98031.00
2018-06-17T05:15:27.854Z,98031.63
2018-06-17T05:16:31.123Z,98034.51
2018-06-17T05:17:34.593Z,98033.08
2018-06-17T05:18:37.856Z,98035.74
2018-06-17T05:19:41.819Z,98041.06
2018-06-17T05:20:44.649Z,98041.03
2018-06-17T05:21:47.493Z,98038.73
2018-06-17T05:22:51.505Z,98043.45
2018-06-17T05:23:54.532Z,98032.13
2018-06-17T05:24:57.364Z,98039.66
2018-06-17T05:26:00.191Z,98036.11
2018-06-17T05:27:03.000Z,98039.41
2018-06-17T05:28:06.318Z,98041.83
2018-06-17T05:29:09.787Z,98044.47
2018-06-17T05:30:12.631Z,98039.31
2018-06-17T05:31:15.453Z,98037.69
2018-06-17T05:32:18.571Z,98040.95
2018-06-17T05:33:22.014Z,98039.67
2018-06-17T05:34:24.966Z,98036.87
2018-06-17T05:35:28.130Z,98038.23
2018-06-17T05:36:30.938Z,98041.34
2018-06-17T05:37:34.767Z,98043.91
2018-06-17T05:38:37.867Z,98045.08
2018-06-17T05:39:40.719Z,98047.07
2018-06-17T05:40:43.536Z,98046.74
2018-06-17T05:41:48.265Z,98037.78
2018-06-17T05:42:52.924Z,98037.09
2018-06-17T05:43:57.006Z,98038.27
2018-06-17T05:45:00.384Z,98029.91
2018-06-17T05:46:03.244Z,98029.03
2018-06-17T05:47:06.152Z,98032.09
2018-06-17T05:48:09.638Z,98025.18
2018-06-17T05:49:13.224Z,98022.30
2018-06-17T05:50:16.564Z,98033.05
2018-06-17T05:51:19.930Z,98028.31
2018-06-17T05:52:22.734Z,98029.12
2018-06-17T05:53:26.443Z,98033.69
2018-06-17T05:54:30.421Z,98027.99
2018-06-17T05:55:34.745Z,98033.06
2018-06-17T05:56:37.778Z,98033.53
2018-06-17T05:57:40.773Z,98039.45
2018-06-17T05:58:44.740Z,98039.22
2018-06-17T05:59:47.643Z,98034.84
2018-06-17T06:00:53.676Z,98031.54
2018-06-17T06:01:57.358Z,98037.69
2018-06-17T06:03:00.213Z,98035.66
2018-06-17T06:04:03.098Z,98033.28
2018-06-17T06:05:06.001Z,98039.19
2018-06-17T06:06:09.419Z,98037.41
2018-06-17T06:07:13.563Z,98041.14
2018-06-17T06:08:20.122Z,98038.17
2018-06-17T06:09:24.539Z,98035.72
2018-06-17T06:10:27.452Z,98038.90
2018-06-17T06:11:30.285Z,98034.11
2018-06-17T06:12:33.137Z,98038.92
2018-06-17T06:13:37.863Z,98038.05
2018-06-17T06:14:43.702Z,98036.92
2018-06-17T06:15:47.648Z,98037.41
2018-06-17T06:16:51.554Z,98040.88
2018-06-17T06:17:54.442Z,98038.88
2018-06-17T06:18:57.263Z,98041.98
2018-06-17T06:20:00.561Z,98041.75
2018-06-17T06:21:04.587Z,98042.02
2018-06-17T06:22:07.716Z,98039.64
2018-06-17T06:23:10.524Z,98038.06
2018-06-17T06:24:13.411Z,98040.09
2018-06-17T06:25:16.391Z,98040.02
2018-06-17T06:26:21.111Z,98041.39
2018-06-17T06:27:24.493Z,98044.30
2018-06-17T06:28:27.271Z,98045.46
2018-06-17T06:29:30.143Z,98050.23
2018-06-17T06:30:33.015Z,98050.44
2018-06-17T06:31:35.875Z,98049.53
2018-06-17T06:32:39.714Z,98059.94
2018-06-17T06:33:42.510Z,98052.08
2018-06-17T06:34:45.319Z,98055.47
2018-06-17T06:35:48.157Z,98061.30
2018-06-17T06:36:51.033Z,98057.74
2018-06-17T06:37:54.005Z,98060.02
2018-06-17T06:38:57.192Z,98059.95
2018-06-17T06:40:00.027Z,98058.08
2018-06-17T06:41:03.439Z,98058.25
2018-06-17T06:42:06.263Z,98060.44
2018-06-17T06:43:09.176Z,98059.13
2018-06-17T06:44:12.719Z,98057.27
2018-06-17T06:45:17.359Z,98062.12
2018-06-17T06:46:21.239Z,98054.86
2018-06-17T06:47:25.049Z,98055.30
2018-06-17T06:48:27.898Z,98059.50
2018-06-17T06:49:30.736Z,98057.91
2018-06-17T06:50:33.544Z,98051.23
2018-06-17T06:51:37.174Z,98058.95
2018-06-17T06:52:40.108Z,98059.57
2018-06-17T06:53:42.963Z,98061.25
2018-06-17T06:54:45.787Z,98059.14
2018-06-17T06:55:48.633Z,98057.03
2018-06-17T06:56:53.032Z,98060.88
2018-06-17T06:57:56.332Z,98067.38
2018-06-17T06:58:59.965Z,98062.11
2018-06-17T07:00:03.608Z,98061.45
2018-06-17T07:01:06.482Z,98057.60
2018-06-17T07:02:09.317Z,98059.95
2018-06-17T07:03:12.131Z,98055.16
2018-06-17T07:04:15.342Z,98057.42
2018-06-17T07:05:18.200Z,98061.42
2018-06-17T07:06:20.995Z,98058.95
2018-06-17T07:07:23.805Z,98061.09
2018-06-17T07:08:26.576Z,98062.92
2018-06-17T07:09:29.469Z,98067.83
2018-06-17T07:10:33.230Z,98058.13
2018-06-17T07:11:36.354Z,98065.62
2018-06-17T07:12:39.235Z,98066.52
2018-06-17T07:13:42.051Z,98065.67
2018-06-17T07:14:46.098Z,98067.97
2018-06-17T07:15:48.882Z,98068.82
2018-06-17T07:16:52.100Z,98069.58
2018-06-17T07:17:55.877Z,98069.80
2018-06-17T07:18:58.681Z,98059.05
2018-06-17T07:20:01.499Z,98062.59
2018-06-17T07:21:04.442Z,98063.84
2018-06-17T07:22:07.250Z,98068.57
2018-06-17T07:23:10.379Z,98069.74
2018-06-17T07:24:13.146Z,98065.39
2018-06-17T07:25:15.949Z,98070.72
2018-06-17T07:26:18.727Z,98069.14
2018-06-17T07:27:21.536Z,98073.28
2018-06-17T07:28:24.351Z,98070.88
2018-06-17T07:29:34.743Z,98067.70
2018-06-17T07:30:37.535Z,98064.82
2018-06-17T07:31:40.656Z,98071.03
2018-06-17T07:32:44.503Z,98064.92
2018-06-17T07:33:50.927Z,98071.95
2018-06-17T07:34:55.542Z,98066.89
2018-06-17T07:35:58.681Z,98069.74
2018-06-17T07:37:01.475Z,98064.91
2018-06-17T07:38:04.251Z,98073.11
2018-06-17T07:39:09.957Z,98080.80
2018-06-17T07:40:14.256Z,98072.84
2018-06-17T07:41:23.814Z,98070.64
2018-06-17T07:42:26.605Z,98073.72
2018-06-17T07:43:29.425Z,98077.52
2018-06-17T07:44:32.361Z,98074.45
2018-06-17T07:45:36.272Z,98072.36
2018-06-17T07:46:43.430Z,98067.28
2018-06-17T07:47:49.574Z,98071.22
2018-06-17T07:48:52.431Z,98074.55
2018-06-17T07:49:55.238Z,98066.75
2018-06-17T07:50:59.730Z,98076.15
2018-06-17T07:52:03.164Z,98072.41
2018-06-17T07:53:06.472Z,98076.29
2018-06-17T07:54:11.063Z,98062.58
2018-06-17T07:55:14.772Z,98076.80
2018-06-17T07:56:20.665Z,98075.35
2018-06-17T07:57:24.695Z,98070.49
2018-06-17T07:58:28.733Z,98071.14
2018-06-17T07:59:32.205Z,98070.38
2018-06-17T08:00:35.308Z,98072.69
2018-06-17T08:01:38.142Z,98074.95
2018-06-17T08:02:42.091Z,98073.75
2018-06-17T08:03:45.931Z,98080.55
2018-06-17T08:04:50.633Z,98071.23
2018-06-17T08:05:53.556Z,98074.41
2018-06-17T08:07:02.367Z,98073.45
2018-06-17T08:08:06.355Z,98085.88
2018-06-17T08:09:10.931Z,98075.38
2018-06-17T08:10:15.287Z,98077.20
2018-06-17T08:11:18.564Z,98081.83
2018-06-17T08:12:21.688Z,98085.47
2018-06-17T08:13:25.675Z,98099.57
2018-06-17T08:14:28.779Z,98082.45
2018-06-17T08:15:34.084Z,98090.77
2018-06-17T08:16:36.954Z,98086.30
2018-06-17T08:17:40.760Z,98082.16
2018-06-17T08:18:44.353Z,98082.78
2018-06-17T08:19:48.704Z,98070.27
2018-06-17T08:20:52.925Z,98073.30
2018-06-17T08:21:57.945Z,98071.31
2018-06-17T08:23:02.600Z,98076.00
2018-06-17T08:24:05.555Z,98068.70
2018-06-17T08:25:13.362Z,98064.65
2018-06-17T08:26:16.170Z,98074.72
2018-06-17T08:27:19.407Z,98073.86
2018-06-17T08:28:22.270Z,98057.04
2018-06-17T08:29:25.259Z,98070.29
2018-06-17T08:30:28.531Z,98068.59
2018-06-17T08:31:39.641Z,98076.14
2018-06-17T08:32:44.782Z,98078.58
2018-06-17T08:33:49.603Z,98058.83
2018-06-17T08:34:53.050Z,98051.66
2018-06-17T08:35:55.876Z,98045.54
2018-06-17T08:36:59.333Z,98078.44
2018-06-17T08:38:04.382Z,98059.69
2018-06-17T08:39:08.286Z,98051.59
2018-06-17T08:40:12.518Z,98062.78
2018-06-17T08:41:15.975Z,98066.75
2018-06-17T08:42:20.090Z,98074.67
2018-06-17T08:43:23.745Z,98073.44
2018-06-17T08:44:27.618Z,98073.57
2018-06-17T08:45:30.483Z,98064.82
2018-06-17T08:46:33.340Z,98084.14
2018-06-17T08:47:36.436Z,98070.38
2018-06-17T08:48:39.309Z,98061.66
2018-06-17T08:49:43.546Z,98064.67
2018-06-17T08:50:46.665Z,98066.78
2018-06-17T08:51:49.504Z,98061.00
2018-06-17T08:52:52.319Z,98068.89
2018-06-17T08:53:55.671Z,98079.87
2018-06-17T08:54:58.465Z,98069.61
2018-06-17T08:56:02.224Z,98073.91
2018-06-17T08:57:06.783Z,98057.94
2018-06-17T08:58:09.676Z,98054.45
2018-06-17T08:59:13.543Z,98058.03
2018-06-17T09:00:17.240Z,98058.24
2018-06-17T09:01:23.492Z,98074.89
2018-06-17T09:02:29.169Z,98061.73
2018-06-17T09:03:32.251Z,98069.27
2018-06-17T09:04:36.453Z,98069.23
2018-06-17T09:05:39.345Z,98070.41
2018-06-17T09:06:44.227Z,98064.37
2018-06-17T09:07:53.722Z,98074.06
2018-06-17T09:09:01.459Z,98069.22
2018-06-17T09:10:09.211Z,98081.23
2018-06-17T09:11:14.303Z,98057.34
2018-06-17T09:12:19.183Z,98061.95
2018-06-17T09:13:28.650Z,98068.04
2018-06-17T09:14:32.603Z,98060.58
2018-06-17T09:15:39.134Z,98068.02
2018-06-17T09:16:45.048Z,98068.36
2018-06-17T09:17:55.968Z,98073.13
2018-06-17T09:18:59.380Z,98071.39
2018-06-17T09:20:04.250Z,98059.97
2018-06-17T09:21:10.301Z,98071.86
2018-06-17T09:22:13.945Z,98070.05
2018-06-17T09:23:20.640Z,98068.11
2018-06-17T09:24:30.351Z,98070.22
2018-06-17T09:25:34.281Z,98073.79
2018-06-17T09:26:37.259Z,98065.02
2018-06-17T09:27:40.492Z,98067.84
2018-06-17T09:28:43.990Z,98066.34
2018-06-17T09:29:48.453Z,98083.13
2018-06-17T09:30:53.710Z,98066.22
2018-06-17T09:31:57.405Z,98076.89
2018-06-17T09:33:00.572Z,98059.89
2018-06-17T09:34:08.246Z,98062.00
2018-06-17T09:35:12.442Z,98073.84
2018-06-17T09:36:15.887Z,98086.91
2018-06-17T09:37:18.674Z,98069.81
2018-06-17T09:38:21.486Z,98076.00
2018-06-17T09:39:27.283Z,98085.31
2018-06-17T09:40:30.794Z,98076.48
2018-06-17T09:41:35.429Z,98075.86
2018-06-17T09:42:40.620Z,98071.86
2018-06-17T09:43:44.165Z,98059.34
2018-06-17T09:45:55.503Z,98074.90
2018-06-17T09:46:59.835Z,98070.13
2018-06-17T09:48:02.911Z,98075.21
2018-06-17T09:49:05.722Z,98070.27
2018-06-17T09:50:09.147Z,98069.48
2018-06-17T09:51:13.225Z,98072.95
2018-06-17T09:52:16.726Z,98076.16
2018-06-17T09:53:19.828Z,98070.05
2018-06-17T09:54:23.410Z,98079.87
2018-06-17T09:55:28.971Z,98070.21
2018-06-17T09:56:31.835Z,98072.20
2018-06-17T09:57:36.317Z,98068.61
2018-06-17T09:58:40.123Z,98067.56
2018-06-17T09:59:44.122Z,98073.75
2018-06-17T10:00:47.011Z,98069.72
2018-06-17T10:01:50.409Z,98068.61
2018-06-17T10:02:55.486Z,98071.48
2018-06-17T10:03:58.368Z,98075.63
2018-06-17T10:05:01.857Z,98072.50
2018-06-17T10:06:05.018Z,98068.23
2018-06-17T10:07:08.490Z,98068.64
2018-06-17T10:08:11.583Z,98066.23
2018-06-17T10:09:14.487Z,98066.69
2018-06-17T10:10:19.202Z,98081.36
2018-06-17T10:11:23.664Z,98061.87
2018-06-17T10:12:26.859Z,98082.25
2018-06-17T10:13:31.012Z,98078.63
2018-06-17T10:14:34.734Z,98068.25
2018-06-17T10:15:37.616Z,98087.02
2018-06-17T10:16:41.408Z,98087.34
2018-06-17T10:17:48.179Z,98077.23
2018-06-17T10:18:53.424Z,98078.54
2018-06-17T10:21:15.583Z,98084.95
2018-06-17T10:22:18.512Z,98072.98
2018-06-17T10:23:23.471Z,98061.95
2018-06-17T10:24:26.338Z,98061.48
2018-06-17T10:25:29.486Z,98066.78
2018-06-17T10:26:33.327Z,98058.69
2018-06-17T10:27:36.151Z,98065.67
2018-06-17T10:28:39.998Z,98073.24
2018-06-17T10:29:42.854Z,98074.42
2018-06-17T10:30:47.925Z,98068.58
2018-06-17T10:31:51.156Z,98059.91
2018-06-17T10:32:59.223Z,98071.73
2018-06-17T10:34:02.090Z,98069.93
2018-06-17T10:35:05.542Z,98071.09
2018-06-17T10:36:10.445Z,98073.19
2018-06-17T10:37:14.365Z,98075.09
2018-06-17T10:38:18.172Z,98080.20
2018-06-17T10:39:22.432Z,98075.88
2018-06-17T10:40:25.262Z,98068.47
2018-06-17T10:41:28.738Z,98072.05
2018-06-17T10:42:31.663Z,98074.06
2018-06-17T10:43:38.763Z,98085.20
2018-06-17T10:44:44.371Z,98074.77
2018-06-17T10:45:47.252Z,98076.27
2018-06-17T10:46:50.082Z,98086.69
2018-06-17T10:47:54.868Z,98092.58
2018-06-17T10:48:58.264Z,98081.11
2018-06-17T10:50:01.158Z,98087.85
2018-06-17T10:51:05.073Z,98078.24
2018-06-17T10:52:07.919Z,98080.56
2018-06-17T10:53:10.801Z,98085.48
2018-06-17T10:54:15.700Z,98080.27
2018-06-17T10:55:18.512Z,98077.73
2018-06-17T10:56:21.362Z,98083.78
2018-06-17T10:57:25.807Z,98079.64
2018-06-17T10:58:29.040Z,98080.02
2018-06-17T10:59:31.916Z,98080.02
2018-06-17T11:00:34.987Z,98084.75
2018-06-17T11:01:39.909Z,98084.75
2018-06-17T11:02:42.849Z,98089.77
2018-06-17T11:03:46.500Z,98079.30
2018-06-17T11:04:49.887Z,98069.81
2018-06-17T11:05:52.728Z,98061.53
2018-06-17T11:06:55.583Z,98074.23
2018-06-17T11:07:59.065Z,98069.64
2018-06-17T11:09:02.602Z,98051.91
2018-06-17T11:10:06.808Z,98053.60
2018-06-17T11:11:10.271Z,98051.50
2018-06-17T11:12:14.439Z,98061.14
2018-06-17T11:13:17.293Z,98063.66
2018-06-17T11:14:20.661Z,98054.91
2018-06-17T11:15:23.633Z,98063.94
2018-06-17T11:16:27.019Z,98063.55
2018-06-17T11:17:29.852Z,98054.72
2018-06-17T11:18:33.368Z,98055.14
2018-06-17T11:19:37.200Z,98067.47
2018-06-17T11:20:41.125Z,98059.69
2018-06-17T11:21:44.349Z,98065.71
2018-06-17T11:22:48.527Z,98067.75
2018-06-17T11:23:51.350Z,98068.07
2018-06-17T11:24:58.498Z,98072.18
2018-06-17T11:26:03.053Z,98071.41
2018-06-17T11:27:06.824Z,98059.58
2018-06-17T11:28:09.947Z,98070.77
2018-06-17T11:29:17.305Z,98063.72
2018-06-17T11:30:21.211Z,98070.36
2018-06-17T11:31:30.314Z,98072.08
2018-06-17T11:32:34.314Z,98064.70
2018-06-17T11:33:38.552Z,98067.55
2018-06-17T11:34:42.681Z,98071.27
2018-06-17T11:35:45.608Z,98069.85
2018-06-17T11:36:49.402Z,98072.61
2018-06-17T11:37:52.482Z,98063.05
2018-06-17T11:38:56.412Z,98067.50
2018-06-17T11:40:03.775Z,98072.25
2018-06-17T11:41:08.091Z,98067.50
2018-06-17T11:42:10.989Z,98070.36
2018-06-17T11:43:13.830Z,98069.95
2018-06-17T11:44:16.799Z,98072.90
2018-06-17T11:45:21.289Z,98070.60
2018-06-17T11:46:24.159Z,98080.02
2018-06-17T11:47:27.346Z,98078.30
2018-06-17T11:48:30.200Z,98073.47
2018-06-17T11:49:33.794Z,98068.14
2018-06-17T11:50:36.700Z,98067.17
2018-06-17T11:51:40.511Z,98057.77
2018-06-17T11:52:44.199Z,98076.33
2018-06-17T11:53:48.359Z,98077.72
2018-06-17T11:54:51.162Z,98067.22
2018-06-17T11:55:53.981Z,98059.83
2018-06-17T11:56:56.819Z,98062.97
2018-06-17T11:58:00.619Z,98075.13
2018-06-17T11:59:04.344Z,98053.14
2018-06-17T12:00:07.866Z,98066.27
2018-06-17T12:01:10.750Z,98062.35
2018-06-17T12:02:13.605Z,98061.77
2018-06-17T12:03:17.708Z,98063.42
2018-06-17T12:04:23.031Z,98063.09
2018-06-17T12:05:25.863Z,98063.07
2018-06-17T12:06:29.082Z,98067.81
2018-06-17T12:07:32.854Z,98069.44
2018-06-17T12:08:35.912Z,98071.11
2018-06-17T12:09:38.687Z,98066.16
2018-06-17T12:10:42.092Z,98066.73
2018-06-17T12:11:45.611Z,98065.71
2018-06-17T12:12:49.703Z,98060.99
2018-06-17T12:13:53.547Z,98064.94
2018-06-17T12:14:57.282Z,98049.55
2018-06-17T12:16:01.266Z,98060.54
2018-06-17T12:17:04.393Z,98062.34
2018-06-17T12:18:10.875Z,98049.13
2018-06-17T12:19:15.354Z,98062.12
2018-06-17T12:20:21.254Z,98060.66
2018-06-17T12:21:24.227Z,98058.37
2018-06-17T12:22:27.614Z,98056.66
2018-06-17T12:23:31.244Z,98057.56
2018-06-17T12:24:34.747Z,98056.39
2018-06-17T12:25:38.612Z,98059.31
2018-06-17T12:26:41.444Z,98063.48
2018-06-17T12:27:44.817Z,98054.44
2018-06-17T12:28:49.293Z,98063.92
2018-06-17T12:29:54.595Z,98063.95
2018-06-17T12:30:58.243Z,98068.13
2018-06-17T12:32:03.731Z,98068.34
2018-06-17T12:33:06.705Z,98063.15
2018-06-17T12:34:10.363Z,98066.73
2018-06-17T12:35:13.214Z,98060.36
2018-06-17T12:36:16.894Z,98066.67
2018-06-17T12:37:21.574Z,98058.35
2018-06-17T12:38:26.243Z,98036.33
2018-06-17T12:39:32.411Z,98057.70
2018-06-17T12:40:36.375Z,98051.94
2018-06-17T12:41:40.494Z,98056.84
2018-06-17T12:42:43.405Z,98063.56
2018-06-17T12:43:46.234Z,98070.81
2018-06-17T12:44:55.954Z,98063.77
2018-06-17T12:45:58.836Z,98061.38
2018-06-17T12:47:01.702Z,98062.12
2018-06-17T12:48:05.522Z,98063.67
2018-06-17T12:49:09.364Z,98061.73
2018-06-17T12:50:12.181Z,98049.73
2018-06-17T12:51:16.225Z,98055.19
2018-06-17T12:52:20.283Z,98058.42
2018-06-17T12:53:23.376Z,98059.48
2018-06-17T12:54:26.255Z,98062.70
2018-06-17T12:55:29.119Z,98063.24
2018-06-17T12:56:33.671Z,98065.67
2018-06-17T12:57:38.493Z,98065.97
2018-06-17T12:58:42.517Z,98066.30
2018-06-17T12:59:45.433Z,98056.09
2018-06-17T13:00:48.370Z,98054.08
2018-06-17T13:01:51.425Z,98059.58